»·PEaware :: N2092L KSBA-KSNA

N2092L :: KSBA-KSNA

FLIGHT INFORMATION

Flight Status: Arrived
Operator: Privately registered:
United States
More flights under this callsign
Pilot: Anonymous 19526 (19526)
Aircraft: PIPER PA-28 CHEROKEE ARCHER
(P28A)
More flights by this aircraft type
Origin: KSBA Santa Barbara Mun
United States
Destination: KSNA John Wayne-Orange Co
United States
More flights between these airports :: More routes between these airports
Route: KWANG CMA VNY V186 BAYJY V363 POXKU V8 SLI
File this flight plan on PilotEdge
Remarks:
Altitude:
(Current/Filed)
5,000ft
Speed:
(Current/Filed)
0kts
Departed: 08-Nov-18 10:49 AM
Arrived: 08-Nov-18 12:02 PM
Distance/Time
Traveled:
108nm/1:13
Distance/Time
To Go:
Arrived

Flight Plot

Page will automatically refresh every two minutes.


Map Options




Map Legend


Flown Route
Filed Route
Departure Airport
Arrival Airport
Navaid (VOR, NDB)
Fix

Horizontal Profiles

Position Reports

Time Latitude Longitude Heading Altitude Ground
Speed
08-Nov-18 10:21 34.422663 -119.835593 340 10ft 0kts
08-Nov-18 10:22 34.422663 -119.835593 340 10ft 0kts
08-Nov-18 10:23 34.422663 -119.835593 340 10ft 0kts
08-Nov-18 10:24 34.422663 -119.835593 340 10ft 0kts
08-Nov-18 10:25 34.422663 -119.835593 340 10ft 0kts
08-Nov-18 10:26 34.422663 -119.835593 340 10ft 0kts
08-Nov-18 10:27 34.422663 -119.835593 340 10ft 0kts
08-Nov-18 10:28 34.422663 -119.835593 340 10ft 0kts
08-Nov-18 10:29 34.422663 -119.835593 340 10ft 0kts
08-Nov-18 10:30 34.422663 -119.835593 340 10ft 0kts
08-Nov-18 10:31 34.422663 -119.835593 340 10ft 0kts
08-Nov-18 10:32 34.422663 -119.835593 340 10ft 0kts
08-Nov-18 10:33 34.422663 -119.835593 340 10ft 0kts
08-Nov-18 10:34 34.422663 -119.835593 340 10ft 0kts
08-Nov-18 10:35 34.422663 -119.835593 340 10ft 0kts
08-Nov-18 10:36 34.422663 -119.835593 340 10ft 0kts
08-Nov-18 10:37 34.422663 -119.835593 340 10ft 0kts
08-Nov-18 10:38 34.422663 -119.835593 340 10ft 0kts
08-Nov-18 10:39 34.422663 -119.835593 340 10ft 0kts
08-Nov-18 10:40 34.422663 -119.835593 340 10ft 0kts
08-Nov-18 10:41 34.422663 -119.835593 340 10ft 0kts
08-Nov-18 10:42 34.422663 -119.835593 340 10ft 0kts
08-Nov-18 10:43 34.422663 -119.835593 340 10ft 0kts
08-Nov-18 10:44 34.422663 -119.835593 340 10ft 0kts
08-Nov-18 10:45 34.422663 -119.835593 340 10ft 0kts
08-Nov-18 10:46 34.422925 -119.836322 276 10ft 10kts
08-Nov-18 10:47 34.422735 -119.837193 312 12ft 4kts
08-Nov-18 10:48 34.426200 -119.838206 345 10ft 14kts
08-Nov-18 10:49 34.430471 -119.839501 342 13ft 5kts
08-Nov-18 10:50 34.430671 -119.839775 280 13ft 0kts
08-Nov-18 10:51 34.430671 -119.839775 280 13ft 0kts
08-Nov-18 10:52 34.425211 -119.838612 159 55ft 79kts
08-Nov-18 10:53 34.403887 -119.830434 157 1063ft 80kts
08-Nov-18 10:54 34.381854 -119.824459 167 2003ft 82kts
08-Nov-18 10:55 34.358880 -119.820497 172 2882ft 84kts
08-Nov-18 10:56 34.335752 -119.813663 160 3694ft 87kts
08-Nov-18 10:57 34.311777 -119.807059 162 4470ft 90kts
08-Nov-18 10:58 34.285934 -119.801824 169 5019ft 102kts
08-Nov-18 10:59 34.261379 -119.787478 91 4918ft 108kts
08-Nov-18 11:00 34.247440 -119.757107 115 5221ft 100kts
08-Nov-18 11:01 34.231214 -119.724344 115 5023ft 99kts
08-Nov-18 11:02 34.217543 -119.696434 114 5278ft 101kts
08-Nov-18 11:03 34.205053 -119.664692 89 5362ft 108kts
08-Nov-18 11:04 34.203557 -119.629507 82 5079ft 104kts
08-Nov-18 11:05 34.204818 -119.595876 75 5044ft 101kts
08-Nov-18 11:06 34.208831 -119.562606 76 5013ft 99kts
08-Nov-18 11:07 34.212956 -119.530339 78 5054ft 100kts
08-Nov-18 11:08 34.214147 -119.496508 83 4990ft 110kts
08-Nov-18 11:09 34.214535 -119.462258 82 4969ft 98kts
08-Nov-18 11:10 34.215013 -119.428988 82 5016ft 102kts
08-Nov-18 11:11 34.215498 -119.394033 82 5062ft 106kts
08-Nov-18 11:12 34.215968 -119.357849 82 5038ft 109kts
08-Nov-18 11:13 34.216330 -119.329297 83 5000ft 111kts
08-Nov-18 11:14 34.216797 -119.292123 83 4976ft 111kts
08-Nov-18 11:15 34.217335 -119.253484 84 5064ft 119kts
08-Nov-18 11:16 34.217800 -119.213258 85 5076ft 120kts
08-Nov-18 11:17 34.218247 -119.173539 85 4929ft 118kts
08-Nov-18 11:18 34.218685 -119.135316 84 4988ft 110kts
08-Nov-18 11:19 34.219129 -119.097755 84 5062ft 111kts
08-Nov-18 11:20 34.219552 -119.059864 84 5109ft 115kts
08-Nov-18 11:21 34.219974 -119.019455 85 4995ft 121kts
08-Nov-18 11:22 34.220377 -118.979216 85 5042ft 118kts
08-Nov-18 11:23 34.220795 -118.938714 85 5035ft 127kts
08-Nov-18 11:24 34.221183 -118.895644 86 5021ft 129kts
08-Nov-18 11:25 34.221571 -118.852100 86 4970ft 130kts
08-Nov-18 11:26 34.221947 -118.808748 86 4971ft 128kts
08-Nov-18 11:27 34.222313 -118.765956 86 5004ft 127kts
08-Nov-18 11:28 34.222661 -118.723065 86 5032ft 127kts
08-Nov-18 11:29 34.222990 -118.680205 86 5019ft 128kts
08-Nov-18 11:30 34.223304 -118.637403 86 4986ft 128kts
08-Nov-18 11:31 34.223606 -118.594430 86 4959ft 128kts
08-Nov-18 11:32 34.223854 -118.557585 86 4942ft 127kts
08-Nov-18 11:33 34.224117 -118.514985 86 4933ft 126kts
08-Nov-18 11:34 34.218789 -118.473951 105 4947ft 124kts
08-Nov-18 11:35 34.207035 -118.434623 106 4939ft 122kts
08-Nov-18 11:36 34.195457 -118.396182 106 4931ft 120kts
08-Nov-18 11:37 34.184081 -118.357991 114 4836ft 125kts
08-Nov-18 11:38 34.173715 -118.324000 115 5029ft 121kts
08-Nov-18 11:39 34.161906 -118.285295 115 5070ft 125kts
08-Nov-18 11:40 34.150029 -118.247057 107 5055ft 120kts
08-Nov-18 11:41 34.138538 -118.208771 106 4946ft 123kts
08-Nov-18 11:42 34.126931 -118.170402 105 4959ft 123kts
08-Nov-18 11:43 34.115221 -118.132063 106 4948ft 126kts
08-Nov-18 11:44 34.102520 -118.091856 107 4927ft 130kts
08-Nov-18 11:45 34.089729 -118.050481 107 4926ft 132kts
08-Nov-18 11:46 34.076970 -118.008909 107 4942ft 132kts
08-Nov-18 11:47 34.064195 -117.967316 107 4937ft 132kts
08-Nov-18 11:48 34.051510 -117.926083 107 4981ft 131kts
08-Nov-18 11:49 34.038760 -117.884678 107 4997ft 131kts
08-Nov-18 11:50 34.026499 -117.844771 107 5041ft 125kts
08-Nov-18 11:51 34.014023 -117.804272 107 5117ft 129kts
08-Nov-18 11:52 33.986677 -117.784802 177 4632ft 124kts
08-Nov-18 11:53 33.952589 -117.783527 179 4097ft 116kts
08-Nov-18 11:54 33.921254 -117.781571 158 3913ft 119kts
08-Nov-18 11:55 33.901763 -117.751366 118 3522ft 115kts
08-Nov-18 11:56 33.885528 -117.721063 121 3095ft 115kts
08-Nov-18 11:57 33.859360 -117.726863 234 3043ft 117kts
08-Nov-18 11:58 33.837029 -117.754818 228 3002ft 119kts
08-Nov-18 11:59 33.815947 -117.778846 205 2830ft 113kts
08-Nov-18 12:00 33.787682 -117.797278 206 2542ft 117kts
08-Nov-18 12:01 33.758657 -117.816233 206 1857ft 117kts
08-Nov-18 12:02 33.730166 -117.834586 208 1232ft 116kts
08-Nov-18 12:03 33.701997 -117.852316 208 498ft 119kts
08-Nov-18 12:04 33.678120 -117.867299 207 59ft 54kts
08-Nov-18 12:05 33.671966 -117.871196 207 59ft 19kts
08-Nov-18 12:06 33.669086 -117.871507 128 59ft 3kts
08-Nov-18 12:07 33.667183 -117.872511 188 59ft 3kts
08-Nov-18 12:08 33.666798 -117.872125 33 59ft 0kts
08-Nov-18 12:09 33.666798 -117.872125 33 59ft 0kts
08-Nov-18 12:10 33.666798 -117.872125 33 59ft 0kts
08-Nov-18 12:11 33.666798 -117.872125 33 59ft 0kts
08-Nov-18 12:12 33.666798 -117.872125 33 59ft 0kts
08-Nov-18 12:13 33.666798 -117.872125 33 59ft 0kts
08-Nov-18 12:14 33.666798 -117.872125 33 59ft 0kts
08-Nov-18 12:15 33.666798 -117.872125 33 59ft 0kts
08-Nov-18 12:16 33.666798 -117.872125 33 59ft 0kts
08-Nov-18 12:17 33.666798 -117.872125 33 59ft 0kts
08-Nov-18 12:18 33.666798 -117.872125 33 59ft 0kts
08-Nov-18 12:19 33.666798 -117.872125 33 59ft 0kts

Navigation Log

Ident Type
1. KSBA Airport
2. KWANG Fix
3. CMA Navaid
4. VNY Navaid
5. DARTS Fix
6. PURMS Fix
7. ELMOO Fix
8. ITSME Fix
9. PIRRO Fix
10. ADAMM Fix
11. BAYJY Fix
12. PRADO Fix
13. POXKU Fix
14. OLLIE Fix
15. AHEIM Fix
16. SLI Navaid
17. KSNA Airport